createdAt,value
2022-09-20T00:00:07.166Z,9.69
2022-09-20T00:02:41.670Z,9.65
2022-09-20T00:05:24.116Z,9.79
2022-09-20T00:07:56.382Z,9.73
2022-09-20T00:10:27.854Z,9.84
2022-09-20T00:12:58.159Z,10.01
2022-09-20T00:15:30.192Z,9.78
2022-09-20T00:18:01.285Z,9.83
2022-09-20T00:20:30.694Z,9.90
2022-09-20T00:23:00.351Z,10.07
2022-09-20T00:25:28.653Z,10.04
2022-09-20T00:27:56.646Z,9.95
2022-09-20T00:30:24.541Z,9.98
2022-09-20T00:32:52.821Z,9.96
2022-09-20T00:35:19.973Z,9.92
2022-09-20T00:37:50.654Z,10.00
2022-09-20T00:40:22.336Z,9.94
2022-09-20T00:42:51.976Z,9.94
2022-09-20T00:45:23.621Z,9.87
2022-09-20T00:47:57.251Z,9.94
2022-09-20T00:50:38.898Z,9.83
2022-09-20T00:53:12.142Z,9.97
2022-09-20T00:55:47.265Z,9.83
2022-09-20T00:58:16.358Z,9.98
2022-09-20T01:00:46.177Z,9.97
2022-09-20T01:03:20.454Z,9.81
2022-09-20T01:05:48.517Z,9.74
2022-09-20T01:08:16.779Z,9.67
2022-09-20T01:10:48.837Z,9.91
2022-09-20T01:13:19.183Z,9.77
2022-09-20T01:15:49.383Z,10.03
2022-09-20T01:18:18.481Z,9.82
2022-09-20T01:20:48.224Z,9.87
2022-09-20T01:23:28.573Z,9.89
2022-09-20T01:26:25.818Z,9.97
2022-09-20T01:29:02.835Z,10.01
2022-09-20T01:31:35.484Z,9.81
2022-09-20T01:34:09.944Z,10.00
2022-09-20T01:36:46.104Z,9.94
2022-09-20T01:39:24.002Z,9.82
2022-09-20T01:41:58.537Z,9.99
2022-09-20T01:44:36.559Z,10.01
2022-09-20T01:47:21.952Z,10.08
2022-09-20T01:49:59.403Z,10.08
2022-09-20T01:53:18.474Z,9.86
2022-09-20T01:56:07.017Z,10.05
2022-09-20T01:59:22.681Z,10.06
2022-09-20T02:02:11.029Z,9.91
2022-09-20T02:05:10.191Z,10.04
2022-09-20T02:08:09.713Z,10.10
2022-09-20T02:10:58.114Z,10.08
2022-09-20T02:13:32.743Z,10.06
2022-09-20T02:16:20.990Z,10.01
2022-09-20T02:19:11.338Z,9.90
2022-09-20T02:21:49.138Z,9.91
2022-09-20T02:24:27.759Z,9.93
2022-09-20T02:27:14.108Z,9.88
2022-09-20T02:29:49.824Z,9.89
2022-09-20T02:32:30.252Z,9.86
2022-09-20T02:35:25.955Z,9.83
2022-09-20T02:38:06.757Z,9.83
2022-09-20T02:40:48.452Z,9.57
2022-09-20T02:43:26.139Z,9.70
2022-09-20T02:46:03.031Z,9.66
2022-09-20T02:48:39.308Z,9.68
2022-09-20T02:51:19.555Z,9.60
2022-09-20T02:53:56.638Z,9.67
2022-09-20T02:56:33.027Z,9.49
2022-09-20T02:59:08.025Z,9.66
2022-09-20T03:01:50.621Z,9.59
2022-09-20T03:04:31.670Z,9.69
2022-09-20T03:07:11.005Z,9.74
2022-09-20T03:09:46.159Z,9.82
2022-09-20T03:12:30.243Z,9.85
2022-09-20T03:15:11.688Z,9.81
2022-09-20T03:17:50.965Z,9.83
2022-09-20T03:20:33.489Z,9.71
2022-09-20T03:23:15.199Z,9.84
2022-09-20T03:25:53.188Z,9.80
2022-09-20T03:28:43.527Z,9.84
2022-09-20T03:31:27.249Z,9.62
2022-09-20T03:34:10.439Z,9.72
2022-09-20T03:37:07.687Z,9.86
2022-09-20T03:40:07.438Z,9.76
2022-09-20T03:42:44.157Z,9.83
2022-09-20T03:45:37.659Z,9.80
2022-09-20T03:48:38.879Z,9.69
2022-09-20T03:51:20.106Z,9.55
2022-09-20T03:54:23.135Z,9.69
2022-09-20T03:57:26.376Z,9.80
2022-09-20T04:00:09.942Z,9.72
2022-09-20T04:02:54.502Z,9.71
2022-09-20T04:05:31.460Z,9.78
2022-09-20T04:08:13.068Z,9.58
2022-09-20T04:10:55.111Z,9.72
2022-09-20T04:13:36.793Z,9.73
2022-09-20T04:16:28.199Z,9.63
2022-09-20T04:19:00.865Z,9.60
2022-09-20T04:21:37.154Z,9.66
2022-09-20T04:24:13.037Z,9.67
2022-09-20T04:26:46.619Z,9.82
2022-09-20T04:29:32.132Z,9.85
2022-09-20T04:32:08.615Z,9.83
2022-09-20T04:35:07.003Z,9.86
2022-09-20T04:37:38.954Z,9.72
2022-09-20T04:40:27.759Z,9.77
2022-09-20T04:43:37.202Z,9.53
2022-09-20T04:46:30.460Z,9.82
2022-09-20T04:49:32.460Z,9.63
2022-09-20T04:52:34.928Z,9.84
2022-09-20T04:55:36.953Z,9.78
2022-09-20T04:58:38.794Z,9.88
2022-09-20T05:01:49.944Z,9.82
2022-09-20T05:04:52.090Z,9.60
2022-09-20T05:08:02.614Z,9.79
2022-09-20T05:11:18.256Z,9.60
2022-09-20T05:14:58.167Z,9.73
2022-09-20T05:18:08.455Z,9.53
2022-09-20T05:21:44.244Z,9.72
2022-09-20T05:24:25.594Z,9.77
2022-09-20T05:27:18.266Z,9.80
2022-09-20T05:30:05.485Z,9.83
2022-09-20T05:32:50.062Z,9.60
2022-09-20T05:35:38.218Z,9.90
2022-09-20T05:38:22.893Z,9.71
2022-09-20T05:41:11.279Z,9.87
2022-09-20T05:44:09.092Z,9.81
2022-09-20T05:47:11.531Z,9.89
2022-09-20T05:49:55.082Z,9.68
2022-09-20T05:52:46.186Z,9.92
2022-09-20T05:56:06.262Z,9.96
2022-09-20T05:59:25.774Z,9.81
2022-09-20T06:02:42.153Z,9.83
2022-09-20T06:05:29.056Z,9.81
2022-09-20T06:08:17.433Z,9.85
2022-09-20T06:14:27.735Z,9.90
2022-09-20T06:17:21.148Z,9.88
2022-09-20T06:23:44.943Z,9.94
2022-09-20T06:26:19.114Z,10.12
2022-09-20T06:29:01.316Z,10.37
2022-09-20T06:34:30.882Z,10.31
2022-09-20T06:37:29.783Z,10.36
2022-09-20T06:40:25.985Z,10.52
2022-09-20T06:42:57.766Z,10.49
2022-09-20T06:48:54.048Z,10.63
2022-09-20T06:51:42.339Z,10.58
2022-09-20T06:54:18.975Z,10.57
2022-09-20T06:56:51.430Z,10.82
2022-09-20T06:59:24.025Z,10.82
2022-09-20T07:02:08.191Z,10.98
2022-09-20T07:05:01.150Z,11.18
2022-09-20T07:07:29.418Z,11.31
2022-09-20T07:32:05.080Z,12.85
2022-09-20T07:34:36.770Z,12.59
2022-09-20T07:37:06.015Z,12.24
2022-09-20T07:39:40.246Z,12.22
2022-09-20T07:42:10.190Z,12.11
2022-09-20T07:44:42.699Z,11.82
2022-09-20T07:47:21.050Z,12.05
2022-09-20T07:49:51.995Z,11.81
2022-09-20T07:52:22.744Z,11.78
2022-09-20T07:54:51.165Z,11.79
2022-09-20T07:57:28.728Z,11.53
2022-09-20T08:00:26.749Z,11.63
2022-09-20T08:03:10.446Z,12.01
2022-09-20T08:09:01.203Z,12.05
2022-09-20T08:11:43.001Z,12.37
2022-09-20T08:14:37.794Z,12.19
2022-09-20T08:17:17.726Z,12.29
2022-09-20T08:20:09.940Z,12.50
2022-09-20T08:23:00.916Z,12.73
2022-09-20T08:25:38.598Z,13.48
2022-09-20T08:28:07.999Z,13.45
2022-09-20T08:30:38.340Z,13.67
2022-09-20T08:33:07.079Z,14.31
2022-09-20T08:35:38.479Z,14.93
2022-09-20T08:41:41.619Z,15.98
2022-09-20T08:44:25.954Z,15.96
2022-09-20T08:50:35.983Z,16.40
2022-09-20T08:53:06.014Z,16.29
2022-09-20T08:55:40.571Z,16.08
2022-09-20T08:58:16.489Z,16.07
2022-09-20T09:01:06.610Z,15.74
2022-09-20T09:03:35.645Z,15.94
2022-09-20T09:07:40.414Z,15.92
2022-09-20T09:09:37.702Z,16.02
2022-09-20T09:12:41.207Z,16.20
2022-09-20T09:15:26.880Z,16.66
2022-09-20T09:17:56.330Z,16.87
2022-09-20T09:20:28.380Z,16.72
2022-09-20T09:23:02.248Z,16.28
2022-09-20T09:25:34.570Z,15.82
2022-09-20T09:28:06.058Z,15.17
2022-09-20T09:30:40.240Z,15.09
2022-09-20T09:33:28.621Z,14.87
2022-09-20T09:36:06.935Z,14.43
2022-09-20T09:38:37.934Z,14.26
2022-09-20T09:41:32.453Z,15.05
2022-09-20T09:44:06.884Z,15.77
2022-09-20T09:46:36.358Z,16.80
2022-09-20T09:49:18.282Z,16.96
2022-09-20T09:52:03.052Z,17.50
2022-09-20T09:54:33.885Z,18.51
2022-09-20T09:57:17.456Z,19.29
2022-09-20T10:00:18.132Z,20.75
2022-09-20T10:03:22.804Z,21.06
2022-09-20T10:06:10.083Z,21.85
2022-09-20T10:09:27.528Z,21.66
2022-09-20T10:12:24.818Z,20.58
2022-09-20T10:15:12.606Z,19.38
2022-09-20T10:18:02.687Z,18.25
2022-09-20T10:21:05.695Z,17.18
2022-09-20T10:24:14.474Z,16.08
2022-09-20T10:27:08.211Z,15.28
2022-09-20T10:29:56.062Z,14.92
2022-09-20T10:32:55.118Z,14.24
2022-09-20T10:35:37.565Z,14.47
2022-09-20T10:38:31.706Z,14.66
2022-09-20T10:42:13.897Z,14.30
2022-09-20T10:47:59.191Z,15.73
2022-09-20T10:50:38.346Z,16.75
2022-09-20T10:53:19.908Z,17.58
2022-09-20T10:55:57.564Z,18.90
2022-09-20T10:58:46.999Z,19.39
2022-09-20T11:01:27.349Z,18.99
2022-09-20T11:04:18.480Z,18.17
2022-09-20T11:06:57.347Z,17.43
2022-09-20T11:09:31.251Z,16.64
2022-09-20T11:12:10.711Z,16.04
2022-09-20T11:14:44.454Z,15.52
2022-09-20T11:17:20.682Z,15.08
2022-09-20T11:19:59.732Z,14.77
2022-09-20T11:22:40.059Z,14.63
2022-09-20T11:25:20.876Z,14.66
2022-09-20T11:27:54.802Z,14.62
2022-09-20T11:30:24.609Z,14.60
2022-09-20T11:33:01.897Z,14.57
2022-09-20T11:35:34.571Z,14.44
2022-09-20T11:38:11.989Z,14.36
2022-09-20T11:40:47.104Z,14.16
2022-09-20T11:43:16.876Z,13.94
2022-09-20T11:45:46.789Z,13.75
2022-09-20T11:48:21.418Z,13.38
2022-09-20T11:51:18.476Z,13.10
2022-09-20T11:54:05.096Z,13.32
2022-09-20T11:56:35.354Z,13.32
2022-09-20T11:59:07.629Z,13.33
2022-09-20T12:01:41.694Z,13.37
2022-09-20T12:04:31.879Z,13.55
2022-09-20T12:07:09.689Z,13.59
2022-09-20T12:09:43.198Z,13.74
2022-09-20T12:12:28.351Z,13.69
2022-09-20T12:14:58.798Z,13.78
2022-09-20T12:18:09.598Z,13.99
2022-09-20T12:21:02.125Z,14.06
2022-09-20T12:24:11.968Z,13.99
2022-09-20T12:26:43.621Z,13.98
2022-09-20T12:29:54.687Z,14.09
2022-09-20T12:32:40.821Z,13.83
2022-09-20T12:35:55.078Z,14.27
2022-09-20T12:38:48.495Z,14.22
2022-09-20T12:41:27.903Z,14.02
2022-09-20T12:44:27.830Z,13.77
2022-09-20T12:46:59.283Z,13.27
2022-09-20T12:49:56.023Z,13.22
2022-09-20T12:52:49.593Z,13.02
2022-09-20T12:55:55.590Z,13.00
2022-09-20T12:58:32.360Z,12.94
2022-09-20T13:01:33.159Z,13.08
2022-09-20T13:04:38.367Z,13.75
2022-09-20T13:07:35.916Z,14.26
2022-09-20T13:10:27.559Z,14.36
2022-09-20T13:13:02.960Z,14.34
2022-09-20T13:15:33.345Z,14.12
2022-09-20T13:18:14.834Z,13.77
2022-09-20T13:20:58.730Z,13.63
2022-09-20T13:23:45.601Z,13.45
2022-09-20T13:26:33.041Z,13.88
2022-09-20T13:29:05.347Z,14.18
2022-09-20T13:31:36.015Z,14.22
2022-09-20T13:34:15.268Z,14.39
2022-09-20T13:36:44.857Z,14.26
2022-09-20T13:39:25.985Z,13.94
2022-09-20T13:42:15.255Z,13.72
2022-09-20T13:45:03.471Z,13.42
2022-09-20T13:48:06.559Z,13.49
2022-09-20T13:50:53.668Z,13.23
2022-09-20T13:53:44.794Z,12.98
2022-09-20T13:56:27.453Z,13.25
2022-09-20T13:59:11.053Z,12.73
2022-09-20T14:01:54.599Z,12.37
2022-09-20T14:04:54.924Z,12.34
2022-09-20T14:07:48.694Z,12.22
2022-09-20T14:13:48.968Z,11.97
2022-09-20T14:16:18.635Z,12.02
2022-09-20T15:19:11.832Z,12.70
2022-09-20T15:22:07.693Z,12.34
2022-09-20T15:24:40.812Z,12.24
2022-09-20T15:27:17.205Z,12.21
2022-09-20T15:29:48.723Z,12.04
2022-09-20T15:32:18.582Z,11.84
2022-09-20T16:07:37.309Z,10.08
2022-09-20T16:10:06.186Z,10.19
2022-09-20T16:12:34.530Z,10.19
2022-09-20T16:15:02.714Z,9.85
2022-09-20T16:17:50.990Z,10.06
2022-09-20T16:20:19.267Z,9.78
2022-09-20T16:22:48.905Z,9.88
2022-09-20T16:25:17.195Z,9.84
2022-09-20T16:27:50.487Z,9.44
2022-09-20T16:30:20.970Z,9.56
2022-09-20T16:32:51.769Z,9.38
2022-09-20T16:35:20.064Z,9.49
2022-09-20T16:37:49.750Z,9.26
2022-09-20T16:40:17.965Z,9.39
2022-09-20T16:42:52.063Z,9.19
2022-09-20T16:45:21.527Z,9.04
2022-09-20T16:47:50.337Z,9.03
2022-09-20T16:50:18.450Z,9.03
2022-09-20T16:52:47.241Z,8.96
2022-09-20T16:55:18.137Z,8.72
2022-09-20T16:57:46.202Z,8.79
2022-09-20T17:00:21.244Z,8.42
2022-09-20T17:02:51.145Z,8.49
2022-09-20T17:05:23.766Z,8.56
2022-09-20T17:07:52.063Z,8.44
2022-09-20T17:10:24.628Z,8.19
2022-09-20T17:12:57.524Z,8.18
2022-09-20T17:15:26.158Z,8.10
2022-09-20T17:17:57.711Z,7.84
2022-09-20T17:20:27.232Z,7.63
2022-09-20T17:22:55.942Z,7.72
2022-09-20T17:25:30.355Z,7.42
2022-09-20T17:27:58.292Z,7.31
2022-09-20T17:30:26.671Z,7.35
2022-09-20T17:32:55.181Z,7.06
2022-09-20T17:35:23.579Z,7.07
2022-09-20T17:37:51.703Z,7.08
2022-09-20T17:40:20.050Z,6.98
2022-09-20T17:42:49.886Z,6.92
2022-09-20T17:45:18.169Z,6.71
2022-09-20T17:47:46.378Z,6.87
2022-09-20T17:51:03.069Z,6.80
2022-09-20T17:53:38.571Z,6.72
2022-09-20T17:56:07.168Z,6.64
2022-09-20T17:58:38.065Z,6.61
2022-09-20T18:01:12.454Z,6.27
2022-09-20T18:03:42.774Z,6.40
2022-09-20T18:06:18.871Z,6.13
2022-09-20T18:08:48.705Z,6.08
2022-09-20T18:11:20.389Z,5.97
2022-09-20T18:13:50.537Z,5.87
2022-09-20T18:16:19.126Z,6.01
2022-09-20T18:18:49.658Z,6.09
2022-09-20T18:21:19.480Z,5.74
2022-09-20T18:23:48.971Z,5.82
2022-09-20T18:26:28.244Z,5.71
2022-09-20T18:29:01.684Z,5.71
2022-09-20T18:31:39.949Z,5.74
2022-09-20T18:34:18.630Z,5.71
2022-09-20T18:36:52.978Z,5.24
2022-09-20T18:39:22.150Z,5.60
2022-09-20T18:41:50.874Z,5.22
2022-09-20T18:44:20.730Z,5.22
2022-09-20T18:46:49.466Z,5.38
2022-09-20T18:49:17.907Z,5.27
2022-09-20T18:51:47.244Z,5.13
2022-09-20T18:54:16.456Z,5.04
2022-09-20T18:56:46.548Z,5.25
2022-09-20T18:59:18.466Z,5.17
2022-09-20T19:02:24.001Z,5.12
2022-09-20T19:05:12.072Z,5.04
2022-09-20T19:07:54.020Z,4.84
2022-09-20T19:10:33.829Z,4.93
2022-09-20T19:13:13.143Z,4.91
2022-09-20T19:15:55.975Z,4.87
2022-09-20T19:18:37.892Z,4.84
2022-09-20T19:21:18.231Z,4.60
2022-09-20T19:24:03.059Z,4.57
2022-09-20T19:26:55.662Z,4.32
2022-09-20T19:29:26.949Z,4.56
2022-09-20T19:32:01.058Z,4.54
2022-09-20T19:39:32.317Z,4.42
2022-09-20T19:43:15.452Z,4.30
2022-09-20T19:52:19.798Z,4.39
2022-09-20T19:54:50.632Z,4.38
2022-09-20T19:57:22.156Z,4.36
2022-09-20T19:59:53.542Z,4.45
2022-09-20T20:02:24.079Z,4.49
2022-09-20T20:04:52.950Z,4.50
2022-09-20T20:07:29.853Z,4.34
2022-09-20T20:10:07.456Z,4.46
2022-09-20T20:12:42.638Z,4.43
2022-09-20T20:15:21.718Z,4.39
2022-09-20T20:17:59.023Z,4.13
2022-09-20T20:20:37.221Z,4.30
2022-09-20T20:23:41.870Z,4.33
2022-09-20T20:26:18.440Z,4.28
2022-09-20T20:28:46.442Z,4.02
2022-09-20T20:31:15.157Z,4.08
2022-09-20T20:33:43.756Z,4.16
2022-09-20T20:38:55.316Z,4.00
2022-09-20T20:41:24.743Z,4.03
2022-09-20T20:43:57.995Z,4.04
2022-09-20T20:46:26.313Z,3.85
2022-09-20T20:48:54.344Z,3.96
2022-09-20T20:51:23.856Z,3.74
2022-09-20T20:53:53.958Z,3.71
2022-09-20T20:56:26.132Z,3.84
2022-09-20T20:58:54.762Z,3.80
2022-09-20T21:01:24.759Z,3.54
2022-09-20T21:03:54.705Z,3.48
2022-09-20T21:06:25.339Z,3.76
2022-09-20T21:08:53.708Z,3.73
2022-09-20T21:11:24.367Z,3.62
2022-09-20T21:13:55.086Z,3.66
2022-09-20T21:16:24.811Z,3.67
2022-09-20T21:18:53.154Z,3.60
2022-09-20T21:21:23.308Z,3.63
2022-09-20T21:23:52.971Z,3.50
2022-09-20T21:26:21.924Z,3.57
2022-09-20T21:28:54.654Z,3.46
2022-09-20T21:31:24.046Z,3.45
2022-09-20T21:33:52.307Z,3.24
2022-09-20T21:36:22.228Z,3.25
2022-09-20T21:38:52.950Z,3.33
2022-09-20T21:41:22.831Z,3.15
2022-09-20T21:43:55.596Z,3.41
2022-09-20T21:46:28.475Z,3.24
2022-09-20T21:48:57.964Z,3.23
2022-09-20T21:51:29.907Z,3.33
2022-09-20T21:53:59.682Z,3.33
2022-09-20T21:56:29.615Z,3.27
2022-09-20T21:59:01.057Z,3.23
2022-09-20T22:01:29.683Z,3.17
2022-09-20T22:04:00.969Z,3.01
2022-09-20T22:06:30.781Z,2.90
2022-09-20T22:09:02.846Z,2.89
2022-09-20T22:11:33.345Z,3.05
2022-09-20T22:14:03.748Z,2.78
2022-09-20T22:16:33.612Z,2.95
2022-09-20T22:19:02.415Z,2.86
2022-09-20T22:21:31.990Z,3.08
2022-09-20T22:24:02.722Z,2.92
2022-09-20T22:26:33.889Z,2.77
2022-09-20T22:29:07.035Z,2.99
2022-09-20T22:31:39.856Z,2.70
2022-09-20T22:34:08.836Z,2.61
2022-09-20T22:36:42.480Z,2.60
2022-09-20T22:39:16.319Z,2.95
2022-09-20T22:41:50.089Z,2.98
2022-09-20T22:44:20.135Z,2.97
2022-09-20T22:47:00.550Z,2.77
2022-09-20T22:49:35.658Z,2.64
2022-09-20T22:52:27.349Z,2.89
2022-09-20T22:55:06.186Z,2.70
2022-09-20T22:57:45.269Z,2.89
2022-09-20T23:00:18.936Z,2.54
2022-09-20T23:02:47.355Z,2.53
2022-09-20T23:05:18.238Z,2.84
2022-09-20T23:07:50.120Z,2.84
2022-09-20T23:10:22.898Z,2.44
2022-09-20T23:13:06.593Z,2.32
2022-09-20T23:15:42.136Z,2.34
2022-09-20T23:18:17.886Z,2.73
2022-09-20T23:20:47.086Z,2.59
2022-09-20T23:23:23.777Z,2.26
2022-09-20T23:25:57.344Z,2.28
2022-09-20T23:28:32.806Z,2.54
2022-09-20T23:31:13.197Z,2.25
2022-09-20T23:33:52.690Z,2.51
2022-09-20T23:36:35.837Z,2.60
2022-09-20T23:39:11.704Z,2.23
2022-09-20T23:41:41.507Z,2.20
2022-09-20T23:44:18.361Z,2.30
2022-09-20T23:46:51.656Z,2.22
2022-09-20T23:49:26.945Z,2.32
2022-09-20T23:52:06.873Z,2.38
2022-09-20T23:54:38.602Z,2.37
2022-09-20T23:57:10.166Z,2.38
2022-09-20T23:59:39.785Z,2.37
